sensor_id;sensor_type;location;lat;lon;timestamp;temperature;humidity
31263;DHT22;17892;52.080;9.006;2023-04-08T00:01:54;7.50;68.20
31263;DHT22;17892;52.080;9.006;2023-04-08T00:04:20;7.50;68.40
31263;DHT22;17892;52.080;9.006;2023-04-08T00:06:46;7.60;68.40
31263;DHT22;17892;52.080;9.006;2023-04-08T00:09:11;7.70;68.20
31263;DHT22;17892;52.080;9.006;2023-04-08T00:11:37;7.70;68.50
31263;DHT22;17892;52.080;9.006;2023-04-08T00:14:03;7.80;67.90
31263;DHT22;17892;52.080;9.006;2023-04-08T00:16:29;7.80;67.70
31263;DHT22;17892;52.080;9.006;2023-04-08T00:18:55;7.90;68.00
31263;DHT22;17892;52.080;9.006;2023-04-08T00:21:21;7.90;68.00
31263;DHT22;17892;52.080;9.006;2023-04-08T00:23:48;7.90;68.20
31263;DHT22;17892;52.080;9.006;2023-04-08T00:26:14;8.00;68.50
31263;DHT22;17892;52.080;9.006;2023-04-08T00:28:40;8.00;68.60
31263;DHT22;17892;52.080;9.006;2023-04-08T00:31:07;8.00;69.10
31263;DHT22;17892;52.080;9.006;2023-04-08T00:33:32;8.10;69.10
31263;DHT22;17892;52.080;9.006;2023-04-08T00:35:58;8.10;69.20
31263;DHT22;17892;52.080;9.006;2023-04-08T00:38:24;8.10;69.10
31263;DHT22;17892;52.080;9.006;2023-04-08T00:40:49;8.20;69.30
31263;DHT22;17892;52.080;9.006;2023-04-08T00:43:15;8.20;69.60
31263;DHT22;17892;52.080;9.006;2023-04-08T00:45:45;8.20;69.70
31263;DHT22;17892;52.080;9.006;2023-04-08T00:48:11;8.20;70.50
31263;DHT22;17892;52.080;9.006;2023-04-08T00:50:37;8.30;71.30
31263;DHT22;17892;52.080;9.006;2023-04-08T00:53:02;8.30;71.70
31263;DHT22;17892;52.080;9.006;2023-04-08T00:55:28;8.30;72.20
31263;DHT22;17892;52.080;9.006;2023-04-08T00:57:54;8.30;72.00
31263;DHT22;17892;52.080;9.006;2023-04-08T01:00:20;8.30;71.90
31263;DHT22;17892;52.080;9.006;2023-04-08T01:03:07;8.30;71.50
31263;DHT22;17892;52.080;9.006;2023-04-08T01:05:53;8.30;72.70
31263;DHT22;17892;52.080;9.006;2023-04-08T01:08:22;8.30;73.40
31263;DHT22;17892;52.080;9.006;2023-04-08T01:10:52;8.30;72.70
31263;DHT22;17892;52.080;9.006;2023-04-08T01:13:21;8.30;72.80
31263;DHT22;17892;52.080;9.006;2023-04-08T01:15:49;8.40;73.00
31263;DHT22;17892;52.080;9.006;2023-04-08T01:18:15;8.30;73.10
31263;DHT22;17892;52.080;9.006;2023-04-08T01:20:42;8.40;73.80
31263;DHT22;17892;52.080;9.006;2023-04-08T01:25:54;8.40;73.00
31263;DHT22;17892;52.080;9.006;2023-04-08T01:28:23;8.40;73.90
31263;DHT22;17892;52.080;9.006;2023-04-08T01:30:52;8.40;74.70
31263;DHT22;17892;52.080;9.006;2023-04-08T01:33:20;8.40;74.00
31263;DHT22;17892;52.080;9.006;2023-04-08T01:35:47;8.40;73.80
31263;DHT22;17892;52.080;9.006;2023-04-08T01:38:17;8.40;75.20
31263;DHT22;17892;52.080;9.006;2023-04-08T01:40:45;8.40;76.30
31263;DHT22;17892;52.080;9.006;2023-04-08T01:43:13;8.40;77.70
31263;DHT22;17892;52.080;9.006;2023-04-08T01:45:43;8.40;77.30
31263;DHT22;17892;52.080;9.006;2023-04-08T01:48:12;8.40;76.70
31263;DHT22;17892;52.080;9.006;2023-04-08T01:50:41;8.30;76.60
31263;DHT22;17892;52.080;9.006;2023-04-08T01:53:09;8.40;76.60
31263;DHT22;17892;52.080;9.006;2023-04-08T01:55:36;8.40;76.20
31263;DHT22;17892;52.080;9.006;2023-04-08T01:58:04;8.30;75.80
31263;DHT22;17892;52.080;9.006;2023-04-08T02:00:33;8.40;76.10
31263;DHT22;17892;52.080;9.006;2023-04-08T02:03:01;8.30;76.20
31263;DHT22;17892;52.080;9.006;2023-04-08T02:05:27;8.30;76.40
31263;DHT22;17892;52.080;9.006;2023-04-08T02:07:53;8.30;76.30
31263;DHT22;17892;52.080;9.006;2023-04-08T02:10:19;8.30;77.10
31263;DHT22;17892;52.080;9.006;2023-04-08T02:12:45;8.30;77.90
31263;DHT22;17892;52.080;9.006;2023-04-08T02:15:12;8.30;77.60
31263;DHT22;17892;52.080;9.006;2023-04-08T02:17:47;8.30;77.40
31263;DHT22;17892;52.080;9.006;2023-04-08T02:20:16;8.30;79.30
31263;DHT22;17892;52.080;9.006;2023-04-08T02:23:08;8.30;77.50
31263;DHT22;17892;52.080;9.006;2023-04-08T02:25:39;8.30;80.10
31263;DHT22;17892;52.080;9.006;2023-04-08T02:28:09;8.30;78.10
31263;DHT22;17892;52.080;9.006;2023-04-08T02:30:37;8.30;78.30
31263;DHT22;17892;52.080;9.006;2023-04-08T02:33:06;8.30;78.70
31263;DHT22;17892;52.080;9.006;2023-04-08T02:35:34;8.30;78.20
31263;DHT22;17892;52.080;9.006;2023-04-08T02:38:01;8.30;78.40
31263;DHT22;17892;52.080;9.006;2023-04-08T02:40:28;8.30;78.50
31263;DHT22;17892;52.080;9.006;2023-04-08T02:42:55;8.30;78.90
31263;DHT22;17892;52.080;9.006;2023-04-08T02:45:23;8.30;78.70
31263;DHT22;17892;52.080;9.006;2023-04-08T02:47:51;8.30;79.20
31263;DHT22;17892;52.080;9.006;2023-04-08T02:50:17;8.30;79.40
31263;DHT22;17892;52.080;9.006;2023-04-08T02:52:43;8.30;80.10
31263;DHT22;17892;52.080;9.006;2023-04-08T02:55:09;8.20;80.40
31263;DHT22;17892;52.080;9.006;2023-04-08T02:57:37;8.20;80.00
31263;DHT22;17892;52.080;9.006;2023-04-08T03:00:04;8.20;80.70
31263;DHT22;17892;52.080;9.006;2023-04-08T03:02:32;8.10;80.30
31263;DHT22;17892;52.080;9.006;2023-04-08T03:04:58;8.10;81.00
31263;DHT22;17892;52.080;9.006;2023-04-08T03:07:24;8.10;81.40
31263;DHT22;17892;52.080;9.006;2023-04-08T03:09:50;8.00;81.20
31263;DHT22;17892;52.080;9.006;2023-04-08T03:12:16;8.00;81.10
31263;DHT22;17892;52.080;9.006;2023-04-08T03:14:42;8.00;81.50
31263;DHT22;17892;52.080;9.006;2023-04-08T03:17:08;7.90;81.70
31263;DHT22;17892;52.080;9.006;2023-04-08T03:19:33;7.90;81.90
31263;DHT22;17892;52.080;9.006;2023-04-08T03:21:59;7.90;82.00
31263;DHT22;17892;52.080;9.006;2023-04-08T03:24:25;7.90;81.90
31263;DHT22;17892;52.080;9.006;2023-04-08T03:26:51;7.90;82.00
31263;DHT22;17892;52.080;9.006;2023-04-08T03:29:16;7.90;81.90
31263;DHT22;17892;52.080;9.006;2023-04-08T03:31:42;7.90;82.50
31263;DHT22;17892;52.080;9.006;2023-04-08T03:34:08;7.90;82.60
31263;DHT22;17892;52.080;9.006;2023-04-08T03:36:33;7.90;83.50
31263;DHT22;17892;52.080;9.006;2023-04-08T03:38:59;7.90;83.70
31263;DHT22;17892;52.080;9.006;2023-04-08T03:41:25;7.90;84.40
31263;DHT22;17892;52.080;9.006;2023-04-08T03:43:50;7.80;84.40
31263;DHT22;17892;52.080;9.006;2023-04-08T03:46:16;7.80;84.50
31263;DHT22;17892;52.080;9.006;2023-04-08T03:48:42;7.80;84.50
31263;DHT22;17892;52.080;9.006;2023-04-08T03:51:07;7.80;84.90
31263;DHT22;17892;52.080;9.006;2023-04-08T03:53:33;7.80;84.50
31263;DHT22;17892;52.080;9.006;2023-04-08T03:55:59;7.80;85.20
31263;DHT22;17892;52.080;9.006;2023-04-08T03:58:25;7.80;86.20
31263;DHT22;17892;52.080;9.006;2023-04-08T04:00:51;7.80;86.40
31263;DHT22;17892;52.080;9.006;2023-04-08T04:03:17;7.80;86.70
31263;DHT22;17892;52.080;9.006;2023-04-08T04:05:44;7.80;86.50
31263;DHT22;17892;52.080;9.006;2023-04-08T04:08:09;7.70;86.80
31263;DHT22;17892;52.080;9.006;2023-04-08T04:10:35;7.80;87.60
31263;DHT22;17892;52.080;9.006;2023-04-08T04:13:01;7.70;87.30
31263;DHT22;17892;52.080;9.006;2023-04-08T04:15:26;7.70;87.00
31263;DHT22;17892;52.080;9.006;2023-04-08T04:17:52;7.70;88.00
31263;DHT22;17892;52.080;9.006;2023-04-08T04:20:18;7.70;89.00
31263;DHT22;17892;52.080;9.006;2023-04-08T04:22:43;7.70;88.10
31263;DHT22;17892;52.080;9.006;2023-04-08T04:25:09;7.70;88.10
31263;DHT22;17892;52.080;9.006;2023-04-08T04:27:35;7.70;88.30
31263;DHT22;17892;52.080;9.006;2023-04-08T04:30:01;7.70;88.90
31263;DHT22;17892;52.080;9.006;2023-04-08T04:32:27;7.70;89.90
31263;DHT22;17892;52.080;9.006;2023-04-08T04:34:53;7.70;89.90
31263;DHT22;17892;52.080;9.006;2023-04-08T04:37:19;7.70;90.40
31263;DHT22;17892;52.080;9.006;2023-04-08T04:39:45;7.70;90.30
31263;DHT22;17892;52.080;9.006;2023-04-08T04:42:11;7.70;90.60
31263;DHT22;17892;52.080;9.006;2023-04-08T04:44:36;7.70;90.50
31263;DHT22;17892;52.080;9.006;2023-04-08T04:47:02;7.70;90.60
31263;DHT22;17892;52.080;9.006;2023-04-08T04:49:28;7.70;90.30
31263;DHT22;17892;52.080;9.006;2023-04-08T04:51:53;7.60;90.30
31263;DHT22;17892;52.080;9.006;2023-04-08T04:54:19;7.70;90.30
31263;DHT22;17892;52.080;9.006;2023-04-08T04:56:45;7.70;90.10
31263;DHT22;17892;52.080;9.006;2023-04-08T04:59:11;7.70;90.10
31263;DHT22;17892;52.080;9.006;2023-04-08T05:01:37;7.70;90.50
31263;DHT22;17892;52.080;9.006;2023-04-08T05:04:05;7.70;90.40
31263;DHT22;17892;52.080;9.006;2023-04-08T05:06:31;7.70;90.50
31263;DHT22;17892;52.080;9.006;2023-04-08T05:08:57;7.70;90.60
31263;DHT22;17892;52.080;9.006;2023-04-08T05:11:22;7.70;90.60
31263;DHT22;17892;52.080;9.006;2023-04-08T05:13:48;7.70;90.60
31263;DHT22;17892;52.080;9.006;2023-04-08T05:16:14;7.70;91.00
31263;DHT22;17892;52.080;9.006;2023-04-08T05:18:41;7.80;90.80
31263;DHT22;17892;52.080;9.006;2023-04-08T05:21:06;7.80;91.70
31263;DHT22;17892;52.080;9.006;2023-04-08T05:23:33;7.80;92.10
31263;DHT22;17892;52.080;9.006;2023-04-08T05:25:59;7.80;92.00
31263;DHT22;17892;52.080;9.006;2023-04-08T05:28:25;7.80;91.50
31263;DHT22;17892;52.080;9.006;2023-04-08T05:30:52;7.80;91.70
31263;DHT22;17892;52.080;9.006;2023-04-08T05:33:18;7.80;91.80
31263;DHT22;17892;52.080;9.006;2023-04-08T05:35:44;7.90;91.70
31263;DHT22;17892;52.080;9.006;2023-04-08T05:38:10;7.90;91.30
31263;DHT22;17892;52.080;9.006;2023-04-08T05:40:36;7.90;91.40
31263;DHT22;17892;52.080;9.006;2023-04-08T05:43:03;7.90;91.50
31263;DHT22;17892;52.080;9.006;2023-04-08T05:45:29;7.90;91.30
31263;DHT22;17892;52.080;9.006;2023-04-08T05:47:54;7.90;91.90
31263;DHT22;17892;52.080;9.006;2023-04-08T05:50:20;7.90;91.50
31263;DHT22;17892;52.080;9.006;2023-04-08T05:52:46;7.90;91.60
31263;DHT22;17892;52.080;9.006;2023-04-08T05:55:12;7.90;92.50
31263;DHT22;17892;52.080;9.006;2023-04-08T05:57:39;7.90;92.30
31263;DHT22;17892;52.080;9.006;2023-04-08T06:00:06;7.90;92.60
31263;DHT22;17892;52.080;9.006;2023-04-08T06:02:34;7.90;92.30
31263;DHT22;17892;52.080;9.006;2023-04-08T06:05:00;7.90;92.50
31263;DHT22;17892;52.080;9.006;2023-04-08T06:07:26;7.90;92.80
31263;DHT22;17892;52.080;9.006;2023-04-08T06:09:52;7.90;92.80
31263;DHT22;17892;52.080;9.006;2023-04-08T06:12:17;7.90;92.90
31263;DHT22;17892;52.080;9.006;2023-04-08T06:14:43;7.90;93.10
31263;DHT22;17892;52.080;9.006;2023-04-08T06:17:09;7.90;92.70
31263;DHT22;17892;52.080;9.006;2023-04-08T06:19:35;7.90;93.10
31263;DHT22;17892;52.080;9.006;2023-04-08T06:22:00;7.90;93.10
31263;DHT22;17892;52.080;9.006;2023-04-08T06:24:27;7.90;93.30
31263;DHT22;17892;52.080;9.006;2023-04-08T06:26:54;8.00;93.20
31263;DHT22;17892;52.080;9.006;2023-04-08T06:29:21;8.10;93.40
31263;DHT22;17892;52.080;9.006;2023-04-08T06:31:48;8.10;93.40
31263;DHT22;17892;52.080;9.006;2023-04-08T06:34:15;8.10;94.00
31263;DHT22;17892;52.080;9.006;2023-04-08T06:36:41;8.10;95.30
31263;DHT22;17892;52.080;9.006;2023-04-08T06:39:06;8.20;95.00
31263;DHT22;17892;52.080;9.006;2023-04-08T06:41:32;8.20;94.20
31263;DHT22;17892;52.080;9.006;2023-04-08T06:43:58;8.30;94.40
31263;DHT22;17892;52.080;9.006;2023-04-08T06:46:24;8.30;94.30
31263;DHT22;17892;52.080;9.006;2023-04-08T06:48:50;8.30;94.50
31263;DHT22;17892;52.080;9.006;2023-04-08T06:51:16;8.40;94.10
31263;DHT22;17892;52.080;9.006;2023-04-08T06:53:42;8.40;94.20
31263;DHT22;17892;52.080;9.006;2023-04-08T06:56:07;8.40;93.90
31263;DHT22;17892;52.080;9.006;2023-04-08T06:58:33;8.40;94.20
31263;DHT22;17892;52.080;9.006;2023-04-08T07:00:59;8.50;94.60
31263;DHT22;17892;52.080;9.006;2023-04-08T07:03:27;8.50;94.40
31263;DHT22;17892;52.080;9.006;2023-04-08T07:05:53;8.60;94.60
31263;DHT22;17892;52.080;9.006;2023-04-08T07:08:18;8.70;96.00
31263;DHT22;17892;52.080;9.006;2023-04-08T07:10:44;8.70;95.70
31263;DHT22;17892;52.080;9.006;2023-04-08T07:13:10;8.80;96.50
31263;DHT22;17892;52.080;9.006;2023-04-08T07:15:36;8.90;97.40
31263;DHT22;17892;52.080;9.006;2023-04-08T07:18:02;8.90;96.90
31263;DHT22;17892;52.080;9.006;2023-04-08T07:20:29;9.00;96.00
31263;DHT22;17892;52.080;9.006;2023-04-08T07:22:55;9.00;96.10
31263;DHT22;17892;52.080;9.006;2023-04-08T07:25:20;9.00;95.40
31263;DHT22;17892;52.080;9.006;2023-04-08T07:27:46;9.00;94.90
31263;DHT22;17892;52.080;9.006;2023-04-08T07:30:12;9.00;95.00
31263;DHT22;17892;52.080;9.006;2023-04-08T07:32:38;9.00;95.20
31263;DHT22;17892;52.080;9.006;2023-04-08T07:35:04;9.00;95.40
31263;DHT22;17892;52.080;9.006;2023-04-08T07:37:30;9.10;96.00
31263;DHT22;17892;52.080;9.006;2023-04-08T07:39:55;9.20;96.40
31263;DHT22;17892;52.080;9.006;2023-04-08T07:42:21;9.20;96.30
31263;DHT22;17892;52.080;9.006;2023-04-08T07:44:47;9.30;96.90
31263;DHT22;17892;52.080;9.006;2023-04-08T07:47:13;9.30;96.40
31263;DHT22;17892;52.080;9.006;2023-04-08T07:49:39;9.40;96.30
31263;DHT22;17892;52.080;9.006;2023-04-08T07:52:05;9.60;96.40
31263;DHT22;17892;52.080;9.006;2023-04-08T07:54:32;9.60;96.20
31263;DHT22;17892;52.080;9.006;2023-04-08T07:57:00;9.70;96.40
31263;DHT22;17892;52.080;9.006;2023-04-08T07:59:27;9.80;96.00
31263;DHT22;17892;52.080;9.006;2023-04-08T08:01:53;9.90;96.00
31263;DHT22;17892;52.080;9.006;2023-04-08T08:04:19;9.90;95.50
31263;DHT22;17892;52.080;9.006;2023-04-08T08:06:45;9.90;95.20
31263;DHT22;17892;52.080;9.006;2023-04-08T08:09:12;9.90;95.20
31263;DHT22;17892;52.080;9.006;2023-04-08T08:11:38;9.90;95.20
31263;DHT22;17892;52.080;9.006;2023-04-08T08:14:03;9.90;95.20
31263;DHT22;17892;52.080;9.006;2023-04-08T08:16:30;9.90;95.00
31263;DHT22;17892;52.080;9.006;2023-04-08T08:18:57;9.80;95.00
31263;DHT22;17892;52.080;9.006;2023-04-08T08:21:24;9.80;94.90
31263;DHT22;17892;52.080;9.006;2023-04-08T08:23:53;9.70;95.20
31263;DHT22;17892;52.080;9.006;2023-04-08T08:26:19;9.70;95.10
31263;DHT22;17892;52.080;9.006;2023-04-08T08:28:45;9.70;94.80
31263;DHT22;17892;52.080;9.006;2023-04-08T08:31:11;9.70;95.00
31263;DHT22;17892;52.080;9.006;2023-04-08T08:33:37;9.70;95.40
31263;DHT22;17892;52.080;9.006;2023-04-08T08:36:03;9.70;95.50
31263;DHT22;17892;52.080;9.006;2023-04-08T08:38:31;9.70;96.50
31263;DHT22;17892;52.080;9.006;2023-04-08T08:40:58;9.80;96.30
31263;DHT22;17892;52.080;9.006;2023-04-08T08:43:25;9.80;97.20
31263;DHT22;17892;52.080;9.006;2023-04-08T08:45:52;9.90;97.00
31263;DHT22;17892;52.080;9.006;2023-04-08T08:48:18;9.90;96.40
31263;DHT22;17892;52.080;9.006;2023-04-08T08:50:44;10.00;96.50
31263;DHT22;17892;52.080;9.006;2023-04-08T08:53:10;10.00;96.10
31263;DHT22;17892;52.080;9.006;2023-04-08T08:55:37;10.10;96.20
31263;DHT22;17892;52.080;9.006;2023-04-08T08:58:04;10.20;96.10
31263;DHT22;17892;52.080;9.006;2023-04-08T09:00:31;10.20;95.60
31263;DHT22;17892;52.080;9.006;2023-04-08T09:03:14;10.30;95.60
31263;DHT22;17892;52.080;9.006;2023-04-08T09:05:51;10.30;95.70
31263;DHT22;17892;52.080;9.006;2023-04-08T09:08:32;10.30;95.60
31263;DHT22;17892;52.080;9.006;2023-04-08T09:13:44;10.40;96.90
31263;DHT22;17892;52.080;9.006;2023-04-08T09:16:12;10.40;96.20
31263;DHT22;17892;52.080;9.006;2023-04-08T09:18:41;10.50;96.00
31263;DHT22;17892;52.080;9.006;2023-04-08T09:21:09;10.60;95.60
31263;DHT22;17892;52.080;9.006;2023-04-08T09:23:43;10.60;95.50
31263;DHT22;17892;52.080;9.006;2023-04-08T09:28:42;10.70;95.10
31263;DHT22;17892;52.080;9.006;2023-04-08T09:31:20;10.70;95.10
31263;DHT22;17892;52.080;9.006;2023-04-08T09:33:48;10.60;94.70
31263;DHT22;17892;52.080;9.006;2023-04-08T09:36:15;10.60;94.40
31263;DHT22;17892;52.080;9.006;2023-04-08T09:38:42;10.50;94.30
31263;DHT22;17892;52.080;9.006;2023-04-08T09:41:12;10.50;94.30
31263;DHT22;17892;52.080;9.006;2023-04-08T09:43:43;10.40;94.50
31263;DHT22;17892;52.080;9.006;2023-04-08T09:46:17;10.40;95.70
31263;DHT22;17892;52.080;9.006;2023-04-08T09:48:49;10.30;95.00
31263;DHT22;17892;52.080;9.006;2023-04-08T09:51:18;10.30;95.50
31263;DHT22;17892;52.080;9.006;2023-04-08T09:53:52;10.30;96.20
31263;DHT22;17892;52.080;9.006;2023-04-08T09:56:21;10.30;97.20
31263;DHT22;17892;52.080;9.006;2023-04-08T09:58:51;10.30;96.80
31263;DHT22;17892;52.080;9.006;2023-04-08T10:01:25;10.20;96.40
31263;DHT22;17892;52.080;9.006;2023-04-08T10:03:54;10.20;96.00
31263;DHT22;17892;52.080;9.006;2023-04-08T10:06:27;10.20;95.80
31263;DHT22;17892;52.080;9.006;2023-04-08T10:08:55;10.20;96.50
31263;DHT22;17892;52.080;9.006;2023-04-08T10:11:20;10.20;96.60
31263;DHT22;17892;52.080;9.006;2023-04-08T10:13:47;10.20;96.40
31263;DHT22;17892;52.080;9.006;2023-04-08T10:16:21;10.20;96.10
31263;DHT22;17892;52.080;9.006;2023-04-08T10:18:49;10.30;96.90
31263;DHT22;17892;52.080;9.006;2023-04-08T10:21:39;10.30;96.80
31263;DHT22;17892;52.080;9.006;2023-04-08T10:24:12;10.40;98.70
31263;DHT22;17892;52.080;9.006;2023-04-08T10:26:42;10.40;97.40
31263;DHT22;17892;52.080;9.006;2023-04-08T10:31:53;10.50;97.30
31263;DHT22;17892;52.080;9.006;2023-04-08T10:34:21;10.60;96.90
31263;DHT22;17892;52.080;9.006;2023-04-08T10:36:49;10.60;96.60
31263;DHT22;17892;52.080;9.006;2023-04-08T10:39:15;10.70;96.20
31263;DHT22;17892;52.080;9.006;2023-04-08T10:41:42;10.70;96.10
31263;DHT22;17892;52.080;9.006;2023-04-08T10:44:22;10.70;96.20
31263;DHT22;17892;52.080;9.006;2023-04-08T10:46:50;10.70;96.50
31263;DHT22;17892;52.080;9.006;2023-04-08T10:49:17;10.60;96.00
31263;DHT22;17892;52.080;9.006;2023-04-08T10:51:44;10.60;95.90
31263;DHT22;17892;52.080;9.006;2023-04-08T10:54:17;10.60;95.90
31263;DHT22;17892;52.080;9.006;2023-04-08T10:56:45;10.50;97.10
31263;DHT22;17892;52.080;9.006;2023-04-08T10:59:16;10.50;97.00
31263;DHT22;17892;52.080;9.006;2023-04-08T11:01:43;10.50;96.50
31263;DHT22;17892;52.080;9.006;2023-04-08T11:04:13;10.50;96.60
31263;DHT22;17892;52.080;9.006;2023-04-08T11:06:42;10.50;96.90
31263;DHT22;17892;52.080;9.006;2023-04-08T11:09:08;10.50;96.60
31263;DHT22;17892;52.080;9.006;2023-04-08T11:11:34;10.50;96.40
31263;DHT22;17892;52.080;9.006;2023-04-08T11:14:00;10.50;96.40
31263;DHT22;17892;52.080;9.006;2023-04-08T11:16:26;10.50;96.40
31263;DHT22;17892;52.080;9.006;2023-04-08T11:18:53;10.60;96.40
31263;DHT22;17892;52.080;9.006;2023-04-08T11:21:22;10.60;96.50
31263;DHT22;17892;52.080;9.006;2023-04-08T11:23:51;10.60;96.80
31263;DHT22;17892;52.080;9.006;2023-04-08T11:26:18;10.70;96.90
31263;DHT22;17892;52.080;9.006;2023-04-08T11:28:44;10.80;97.30
31263;DHT22;17892;52.080;9.006;2023-04-08T11:31:12;11.00;97.70
31263;DHT22;17892;52.080;9.006;2023-04-08T11:33:44;11.10;97.80
31263;DHT22;17892;52.080;9.006;2023-04-08T11:36:12;11.40;97.90
31263;DHT22;17892;52.080;9.006;2023-04-08T11:38:40;11.60;97.60
31263;DHT22;17892;52.080;9.006;2023-04-08T11:41:06;11.80;97.70
31263;DHT22;17892;52.080;9.006;2023-04-08T11:43:32;11.90;97.40
31263;DHT22;17892;52.080;9.006;2023-04-08T11:45:58;12.00;97.00
31263;DHT22;17892;52.080;9.006;2023-04-08T11:48:24;12.00;96.80
31263;DHT22;17892;52.080;9.006;2023-04-08T11:51:02;12.10;96.60
31263;DHT22;17892;52.080;9.006;2023-04-08T11:53:29;12.10;96.60
31263;DHT22;17892;52.080;9.006;2023-04-08T11:55:55;12.00;96.50
31263;DHT22;17892;52.080;9.006;2023-04-08T11:58:20;12.00;96.50
31263;DHT22;17892;52.080;9.006;2023-04-08T12:00:46;12.00;96.50
31263;DHT22;17892;52.080;9.006;2023-04-08T12:03:13;12.00;96.10
31263;DHT22;17892;52.080;9.006;2023-04-08T12:05:40;12.00;96.00
31263;DHT22;17892;52.080;9.006;2023-04-08T12:08:06;11.90;95.80
31263;DHT22;17892;52.080;9.006;2023-04-08T12:10:32;12.00;95.90
31263;DHT22;17892;52.080;9.006;2023-04-08T12:12:58;12.00;96.00
31263;DHT22;17892;52.080;9.006;2023-04-08T12:15:23;12.00;95.90
31263;DHT22;17892;52.080;9.006;2023-04-08T12:17:49;12.00;95.50
31263;DHT22;17892;52.080;9.006;2023-04-08T12:20:15;11.90;95.40
31263;DHT22;17892;52.080;9.006;2023-04-08T12:22:41;11.90;95.50
31263;DHT22;17892;52.080;9.006;2023-04-08T12:25:07;11.90;95.60
31263;DHT22;17892;52.080;9.006;2023-04-08T12:27:33;11.90;96.00
31263;DHT22;17892;52.080;9.006;2023-04-08T12:30:00;11.80;96.00
31263;DHT22;17892;52.080;9.006;2023-04-08T12:32:26;11.80;95.80
31263;DHT22;17892;52.080;9.006;2023-04-08T12:34:53;11.80;95.70
31263;DHT22;17892;52.080;9.006;2023-04-08T12:37:18;11.80;95.70
31263;DHT22;17892;52.080;9.006;2023-04-08T12:39:47;11.80;96.00
31263;DHT22;17892;52.080;9.006;2023-04-08T12:42:14;11.80;95.90
31263;DHT22;17892;52.080;9.006;2023-04-08T12:44:39;11.80;96.20
31263;DHT22;17892;52.080;9.006;2023-04-08T12:47:05;11.80;95.90
31263;DHT22;17892;52.080;9.006;2023-04-08T12:49:31;11.80;96.10
31263;DHT22;17892;52.080;9.006;2023-04-08T12:51:56;11.80;96.00
31263;DHT22;17892;52.080;9.006;2023-04-08T12:54:22;11.80;96.00
31263;DHT22;17892;52.080;9.006;2023-04-08T12:56:48;11.80;95.80
31263;DHT22;17892;52.080;9.006;2023-04-08T12:59:14;11.80;95.70
31263;DHT22;17892;52.080;9.006;2023-04-08T13:01:40;11.90;95.80
31263;DHT22;17892;52.080;9.006;2023-04-08T13:04:06;11.90;95.90
31263;DHT22;17892;52.080;9.006;2023-04-08T13:06:32;11.90;96.30
31263;DHT22;17892;52.080;9.006;2023-04-08T13:08:57;11.80;95.80
31263;DHT22;17892;52.080;9.006;2023-04-08T13:11:23;11.80;95.70
31263;DHT22;17892;52.080;9.006;2023-04-08T13:13:49;11.80;95.70
31263;DHT22;17892;52.080;9.006;2023-04-08T13:16:15;11.80;95.70
31263;DHT22;17892;52.080;9.006;2023-04-08T13:18:41;11.80;96.10
31263;DHT22;17892;52.080;9.006;2023-04-08T13:21:07;11.80;96.30
31263;DHT22;17892;52.080;9.006;2023-04-08T13:23:33;11.80;96.60
31263;DHT22;17892;52.080;9.006;2023-04-08T13:25:59;11.80;96.40
31263;DHT22;17892;52.080;9.006;2023-04-08T13:28:25;11.90;96.40
31263;DHT22;17892;52.080;9.006;2023-04-08T13:30:51;11.90;96.40
31263;DHT22;17892;52.080;9.006;2023-04-08T13:33:18;11.90;96.10
31263;DHT22;17892;52.080;9.006;2023-04-08T13:35:44;11.90;96.00
31263;DHT22;17892;52.080;9.006;2023-04-08T13:38:10;11.90;95.80
31263;DHT22;17892;52.080;9.006;2023-04-08T13:40:35;12.00;95.80
31263;DHT22;17892;52.080;9.006;2023-04-08T13:43:01;11.90;95.90
31263;DHT22;17892;52.080;9.006;2023-04-08T13:45:27;11.90;96.30
31263;DHT22;17892;52.080;9.006;2023-04-08T13:47:53;12.00;96.30
31263;DHT22;17892;52.080;9.006;2023-04-08T13:50:19;12.00;96.20
31263;DHT22;17892;52.080;9.006;2023-04-08T13:52:44;12.00;96.20
31263;DHT22;17892;52.080;9.006;2023-04-08T13:55:10;12.10;96.10
31263;DHT22;17892;52.080;9.006;2023-04-08T13:57:36;12.10;96.00
31263;DHT22;17892;52.080;9.006;2023-04-08T14:00:02;12.10;95.90
31263;DHT22;17892;52.080;9.006;2023-04-08T14:02:29;12.10;95.80
31263;DHT22;17892;52.080;9.006;2023-04-08T14:04:55;12.10;96.10
31263;DHT22;17892;52.080;9.006;2023-04-08T14:07:21;12.10;95.90
31263;DHT22;17892;52.080;9.006;2023-04-08T14:09:46;12.10;95.60
31263;DHT22;17892;52.080;9.006;2023-04-08T14:12:12;12.00;95.60
31263;DHT22;17892;52.080;9.006;2023-04-08T14:14:37;12.00;95.50
31263;DHT22;17892;52.080;9.006;2023-04-08T14:17:03;11.90;95.50
31263;DHT22;17892;52.080;9.006;2023-04-08T14:19:29;11.90;95.50
31263;DHT22;17892;52.080;9.006;2023-04-08T14:21:55;11.90;96.10
31263;DHT22;17892;52.080;9.006;2023-04-08T14:24:20;11.90;96.00
31263;DHT22;17892;52.080;9.006;2023-04-08T14:26:46;12.00;96.30
31263;DHT22;17892;52.080;9.006;2023-04-08T14:29:12;12.10;96.80
31263;DHT22;17892;52.080;9.006;2023-04-08T14:31:37;12.20;97.30
31263;DHT22;17892;52.080;9.006;2023-04-08T14:34:03;12.40;97.30
31263;DHT22;17892;52.080;9.006;2023-04-08T14:36:29;12.60;97.20
31263;DHT22;17892;52.080;9.006;2023-04-08T14:38:58;12.70;96.80
31263;DHT22;17892;52.080;9.006;2023-04-08T14:41:24;12.80;96.50
31263;DHT22;17892;52.080;9.006;2023-04-08T14:43:52;12.90;96.20
31263;DHT22;17892;52.080;9.006;2023-04-08T14:46:19;12.90;96.00
31263;DHT22;17892;52.080;9.006;2023-04-08T14:48:45;13.00;95.60
31263;DHT22;17892;52.080;9.006;2023-04-08T14:51:11;13.00;95.40
31263;DHT22;17892;52.080;9.006;2023-04-08T14:53:36;13.00;95.30
31263;DHT22;17892;52.080;9.006;2023-04-08T14:56:02;12.90;95.10
31263;DHT22;17892;52.080;9.006;2023-04-08T14:58:28;12.90;95.10
31263;DHT22;17892;52.080;9.006;2023-04-08T15:00:54;12.90;95.10
31263;DHT22;17892;52.080;9.006;2023-04-08T15:03:20;12.80;94.90
31263;DHT22;17892;52.080;9.006;2023-04-08T15:05:46;12.80;94.80
31263;DHT22;17892;52.080;9.006;2023-04-08T15:08:13;12.70;95.40
31263;DHT22;17892;52.080;9.006;2023-04-08T15:10:38;12.60;95.20
31263;DHT22;17892;52.080;9.006;2023-04-08T15:13:04;12.60;95.30
31263;DHT22;17892;52.080;9.006;2023-04-08T15:15:30;12.60;95.30
31263;DHT22;17892;52.080;9.006;2023-04-08T15:17:56;12.50;95.50
31263;DHT22;17892;52.080;9.006;2023-04-08T15:20:22;12.50;95.50
31263;DHT22;17892;52.080;9.006;2023-04-08T15:22:47;12.40;95.40
31263;DHT22;17892;52.080;9.006;2023-04-08T15:25:13;12.40;95.40
31263;DHT22;17892;52.080;9.006;2023-04-08T15:27:40;12.40;95.30
31263;DHT22;17892;52.080;9.006;2023-04-08T15:30:06;12.40;95.30
31263;DHT22;17892;52.080;9.006;2023-04-08T15:32:32;12.40;95.50
31263;DHT22;17892;52.080;9.006;2023-04-08T15:34:59;12.40;95.60
31263;DHT22;17892;52.080;9.006;2023-04-08T15:37:25;12.40;95.50
31263;DHT22;17892;52.080;9.006;2023-04-08T15:39:51;12.30;95.40
31263;DHT22;17892;52.080;9.006;2023-04-08T15:42:20;12.30;95.30
31263;DHT22;17892;52.080;9.006;2023-04-08T15:44:46;12.30;95.40
31263;DHT22;17892;52.080;9.006;2023-04-08T15:47:12;12.20;95.50
31263;DHT22;17892;52.080;9.006;2023-04-08T15:49:39;12.20;95.40